sensor_id;sensor_type;location;lat;lon;timestamp;P1;durP1;ratioP1;P2;durP2;ratioP2
43311;SDS011;30041;48.300;16.352;2023-07-31T00:00:37;1.48;;;1.20;;
43311;SDS011;30041;48.300;16.352;2023-07-31T00:03:03;4.22;;;1.30;;
43311;SDS011;30041;48.300;16.352;2023-07-31T00:05:29;2.58;;;1.30;;
43311;SDS011;30041;48.300;16.352;2023-07-31T00:07:55;2.25;;;1.38;;
43311;SDS011;30041;48.300;16.352;2023-07-31T00:10:21;3.38;;;1.33;;
43311;SDS011;30041;48.300;16.352;2023-07-31T00:12:49;3.30;;;1.30;;
43311;SDS011;30041;48.300;16.352;2023-07-31T00:15:15;1.65;;;1.15;;
43311;SDS011;30041;48.300;16.352;2023-07-31T00:17:41;2.08;;;1.20;;
43311;SDS011;30041;48.300;16.352;2023-07-31T00:20:07;3.17;;;1.48;;
43311;SDS011;30041;48.300;16.352;2023-07-31T00:22:33;3.20;;;1.48;;
43311;SDS011;30041;48.300;16.352;2023-07-31T00:24:59;4.00;;;1.35;;
43311;SDS011;30041;48.300;16.352;2023-07-31T00:27:25;1.92;;;1.30;;
43311;SDS011;30041;48.300;16.352;2023-07-31T00:29:51;2.40;;;1.45;;
43311;SDS011;30041;48.300;16.352;2023-07-31T00:32:17;2.55;;;1.33;;
43311;SDS011;30041;48.300;16.352;2023-07-31T00:34:43;3.40;;;1.27;;
43311;SDS011;30041;48.300;16.352;2023-07-31T00:37:09;2.78;;;1.55;;
43311;SDS011;30041;48.300;16.352;2023-07-31T00:39:35;2.50;;;1.35;;
43311;SDS011;30041;48.300;16.352;2023-07-31T00:42:01;2.60;;;1.20;;
43311;SDS011;30041;48.300;16.352;2023-07-31T00:44:28;2.03;;;1.40;;
43311;SDS011;30041;48.300;16.352;2023-07-31T00:46:56;2.05;;;1.20;;
43311;SDS011;30041;48.300;16.352;2023-07-31T00:49:22;2.03;;;1.25;;
43311;SDS011;30041;48.300;16.352;2023-07-31T00:51:48;1.95;;;1.30;;
43311;SDS011;30041;48.300;16.352;2023-07-31T00:54:16;2.38;;;1.20;;
43311;SDS011;30041;48.300;16.352;2023-07-31T00:56:44;1.85;;;1.15;;
43311;SDS011;30041;48.300;16.352;2023-07-31T00:59:11;1.42;;;1.13;;
43311;SDS011;30041;48.300;16.352;2023-07-31T01:01:37;1.88;;;1.27;;
43311;SDS011;30041;48.300;16.352;2023-07-31T01:04:04;2.03;;;1.30;;
43311;SDS011;30041;48.300;16.352;2023-07-31T01:06:31;2.47;;;1.30;;
43311;SDS011;30041;48.300;16.352;2023-07-31T01:11:46;2.55;;;1.30;;
43311;SDS011;30041;48.300;16.352;2023-07-31T01:14:17;1.67;;;0.95;;
43311;SDS011;30041;48.300;16.352;2023-07-31T01:16:43;4.05;;;1.33;;
43311;SDS011;30041;48.300;16.352;2023-07-31T01:19:10;2.05;;;1.10;;
43311;SDS011;30041;48.300;16.352;2023-07-31T01:27:27;2.30;;;1.40;;
43311;SDS011;30041;48.300;16.352;2023-07-31T01:32:31;2.28;;;1.40;;
43311;SDS011;30041;48.300;16.352;2023-07-31T01:35:04;2.13;;;1.20;;
43311;SDS011;30041;48.300;16.352;2023-07-31T01:37:31;2.00;;;1.30;;
43311;SDS011;30041;48.300;16.352;2023-07-31T01:40:12;2.22;;;1.15;;
43311;SDS011;30041;48.300;16.352;2023-07-31T01:42:38;1.73;;;1.20;;
43311;SDS011;30041;48.300;16.352;2023-07-31T01:45:04;2.00;;;1.35;;
43311;SDS011;30041;48.300;16.352;2023-07-31T01:47:30;2.38;;;1.40;;
43311;SDS011;30041;48.300;16.352;2023-07-31T01:49:56;1.75;;;1.08;;
43311;SDS011;30041;48.300;16.352;2023-07-31T01:52:24;1.80;;;1.15;;
43311;SDS011;30041;48.300;16.352;2023-07-31T01:54:50;2.45;;;1.25;;
43311;SDS011;30041;48.300;16.352;2023-07-31T01:57:17;2.13;;;1.23;;
43311;SDS011;30041;48.300;16.352;2023-07-31T01:59:43;2.58;;;1.20;;
43311;SDS011;30041;48.300;16.352;2023-07-31T02:02:10;1.80;;;1.25;;
43311;SDS011;30041;48.300;16.352;2023-07-31T02:04:36;3.45;;;1.15;;
43311;SDS011;30041;48.300;16.352;2023-07-31T02:07:02;2.47;;;1.10;;
43311;SDS011;30041;48.300;16.352;2023-07-31T02:09:28;1.85;;;1.25;;
43311;SDS011;30041;48.300;16.352;2023-07-31T02:11:56;1.98;;;1.15;;
43311;SDS011;30041;48.300;16.352;2023-07-31T02:14:22;3.55;;;1.50;;
43311;SDS011;30041;48.300;16.352;2023-07-31T02:16:48;2.38;;;1.25;;
43311;SDS011;30041;48.300;16.352;2023-07-31T02:19:14;2.95;;;1.20;;
43311;SDS011;30041;48.300;16.352;2023-07-31T02:21:40;2.60;;;1.23;;
43311;SDS011;30041;48.300;16.352;2023-07-31T02:24:06;3.20;;;1.35;;
43311;SDS011;30041;48.300;16.352;2023-07-31T02:26:32;2.22;;;1.30;;
43311;SDS011;30041;48.300;16.352;2023-07-31T02:28:57;2.15;;;1.17;;
43311;SDS011;30041;48.300;16.352;2023-07-31T02:31:23;2.13;;;1.40;;
43311;SDS011;30041;48.300;16.352;2023-07-31T02:33:52;3.75;;;1.50;;
43311;SDS011;30041;48.300;16.352;2023-07-31T02:36:18;1.52;;;1.00;;
43311;SDS011;30041;48.300;16.352;2023-07-31T02:38:44;2.42;;;1.30;;
43311;SDS011;30041;48.300;16.352;2023-07-31T02:41:10;3.80;;;1.20;;
43311;SDS011;30041;48.300;16.352;2023-07-31T02:43:36;2.65;;;1.27;;
43311;SDS011;30041;48.300;16.352;2023-07-31T02:46:02;2.38;;;1.10;;
43311;SDS011;30041;48.300;16.352;2023-07-31T02:48:28;2.05;;;1.10;;
43311;SDS011;30041;48.300;16.352;2023-07-31T02:50:54;2.72;;;1.25;;
43311;SDS011;30041;48.300;16.352;2023-07-31T02:53:22;3.13;;;1.30;;
43311;SDS011;30041;48.300;16.352;2023-07-31T02:55:48;1.42;;;1.15;;
43311;SDS011;30041;48.300;16.352;2023-07-31T02:58:14;2.03;;;1.13;;
43311;SDS011;30041;48.300;16.352;2023-07-31T03:00:43;2.85;;;1.35;;
43311;SDS011;30041;48.300;16.352;2023-07-31T03:03:10;2.20;;;1.20;;
43311;SDS011;30041;48.300;16.352;2023-07-31T03:05:36;3.42;;;1.38;;
43311;SDS011;30041;48.300;16.352;2023-07-31T03:08:03;2.53;;;1.35;;
43311;SDS011;30041;48.300;16.352;2023-07-31T03:10:32;4.28;;;1.10;;
43311;SDS011;30041;48.300;16.352;2023-07-31T03:12:58;2.17;;;1.20;;
43311;SDS011;30041;48.300;16.352;2023-07-31T03:15:24;2.15;;;1.40;;
43311;SDS011;30041;48.300;16.352;2023-07-31T03:17:50;2.35;;;1.20;;
43311;SDS011;30041;48.300;16.352;2023-07-31T03:20:16;1.65;;;1.10;;
43311;SDS011;30041;48.300;16.352;2023-07-31T03:22:42;2.15;;;1.27;;
43311;SDS011;30041;48.300;16.352;2023-07-31T03:25:08;1.65;;;0.93;;
43311;SDS011;30041;48.300;16.352;2023-07-31T03:27:34;2.67;;;1.38;;
43311;SDS011;30041;48.300;16.352;2023-07-31T03:30:00;3.10;;;1.50;;
43311;SDS011;30041;48.300;16.352;2023-07-31T03:32:27;3.38;;;1.23;;
43311;SDS011;30041;48.300;16.352;2023-07-31T03:34:54;2.25;;;1.20;;
43311;SDS011;30041;48.300;16.352;2023-07-31T03:37:20;2.50;;;1.23;;
43311;SDS011;30041;48.300;16.352;2023-07-31T03:39:46;2.72;;;1.20;;
43311;SDS011;30041;48.300;16.352;2023-07-31T03:42:12;1.98;;;1.15;;
43311;SDS011;30041;48.300;16.352;2023-07-31T03:44:38;2.17;;;1.17;;
43311;SDS011;30041;48.300;16.352;2023-07-31T03:47:05;2.00;;;1.25;;
43311;SDS011;30041;48.300;16.352;2023-07-31T03:49:31;2.22;;;1.10;;
43311;SDS011;30041;48.300;16.352;2023-07-31T03:51:57;2.75;;;1.25;;
43311;SDS011;30041;48.300;16.352;2023-07-31T03:54:23;3.42;;;1.60;;
43311;SDS011;30041;48.300;16.352;2023-07-31T03:56:49;5.25;;;1.40;;
43311;SDS011;30041;48.300;16.352;2023-07-31T03:59:15;2.60;;;1.40;;
43311;SDS011;30041;48.300;16.352;2023-07-31T04:01:42;5.30;;;1.30;;
43311;SDS011;30041;48.300;16.352;2023-07-31T04:04:07;1.60;;;1.23;;
43311;SDS011;30041;48.300;16.352;2023-07-31T04:06:33;3.22;;;1.70;;
43311;SDS011;30041;48.300;16.352;2023-07-31T04:08:59;2.55;;;1.42;;
43311;SDS011;30041;48.300;16.352;2023-07-31T04:11:25;2.17;;;1.33;;
43311;SDS011;30041;48.300;16.352;2023-07-31T04:13:51;4.60;;;1.77;;
43311;SDS011;30041;48.300;16.352;2023-07-31T04:16:18;2.80;;;1.40;;
43311;SDS011;30041;48.300;16.352;2023-07-31T04:18:44;2.25;;;1.40;;
43311;SDS011;30041;48.300;16.352;2023-07-31T04:21:10;2.83;;;1.65;;
43311;SDS011;30041;48.300;16.352;2023-07-31T04:23:36;2.60;;;1.30;;
43311;SDS011;30041;48.300;16.352;2023-07-31T04:26:02;3.97;;;1.40;;
43311;SDS011;30041;48.300;16.352;2023-07-31T04:28:31;2.88;;;1.52;;
43311;SDS011;30041;48.300;16.352;2023-07-31T04:30:57;4.97;;;1.60;;
43311;SDS011;30041;48.300;16.352;2023-07-31T04:33:23;5.30;;;1.42;;
43311;SDS011;30041;48.300;16.352;2023-07-31T04:35:50;3.83;;;1.50;;
43311;SDS011;30041;48.300;16.352;2023-07-31T04:38:17;4.22;;;1.65;;
43311;SDS011;30041;48.300;16.352;2023-07-31T04:40:46;3.22;;;1.40;;
43311;SDS011;30041;48.300;16.352;2023-07-31T04:43:13;5.68;;;1.83;;
43311;SDS011;30041;48.300;16.352;2023-07-31T04:45:45;5.28;;;1.70;;
43311;SDS011;30041;48.300;16.352;2023-07-31T04:48:11;5.43;;;1.77;;
43311;SDS011;30041;48.300;16.352;2023-07-31T04:50:37;4.22;;;1.67;;
43311;SDS011;30041;48.300;16.352;2023-07-31T04:53:04;6.88;;;1.92;;
43311;SDS011;30041;48.300;16.352;2023-07-31T04:55:30;4.93;;;1.80;;
43311;SDS011;30041;48.300;16.352;2023-07-31T04:57:57;4.07;;;1.90;;
43311;SDS011;30041;48.300;16.352;2023-07-31T05:00:24;8.98;;;2.35;;
43311;SDS011;30041;48.300;16.352;2023-07-31T05:02:50;8.45;;;2.78;;
43311;SDS011;30041;48.300;16.352;2023-07-31T05:05:17;6.07;;;2.08;;
43311;SDS011;30041;48.300;16.352;2023-07-31T05:07:42;6.78;;;2.28;;
43311;SDS011;30041;48.300;16.352;2023-07-31T05:10:08;2.95;;;1.80;;
43311;SDS011;30041;48.300;16.352;2023-07-31T05:12:34;2.70;;;1.60;;
43311;SDS011;30041;48.300;16.352;2023-07-31T05:15:03;9.50;;;2.00;;
43311;SDS011;30041;48.300;16.352;2023-07-31T05:17:30;5.95;;;2.28;;
43311;SDS011;30041;48.300;16.352;2023-07-31T05:19:56;4.03;;;2.13;;
43311;SDS011;30041;48.300;16.352;2023-07-31T05:22:22;4.60;;;2.20;;
43311;SDS011;30041;48.300;16.352;2023-07-31T05:24:48;4.00;;;1.90;;
43311;SDS011;30041;48.300;16.352;2023-07-31T05:27:17;4.55;;;1.70;;
43311;SDS011;30041;48.300;16.352;2023-07-31T05:29:43;4.82;;;2.00;;
43311;SDS011;30041;48.300;16.352;2023-07-31T05:32:10;5.10;;;2.30;;
43311;SDS011;30041;48.300;16.352;2023-07-31T05:34:36;6.22;;;1.95;;
43311;SDS011;30041;48.300;16.352;2023-07-31T05:37:02;6.05;;;1.92;;
43311;SDS011;30041;48.300;16.352;2023-07-31T05:39:29;7.40;;;2.13;;
43311;SDS011;30041;48.300;16.352;2023-07-31T05:41:55;3.85;;;1.90;;
43311;SDS011;30041;48.300;16.352;2023-07-31T05:44:21;7.43;;;2.00;;
43311;SDS011;30041;48.300;16.352;2023-07-31T05:46:49;8.15;;;2.05;;
43311;SDS011;30041;48.300;16.352;2023-07-31T05:49:15;4.10;;;1.80;;
43311;SDS011;30041;48.300;16.352;2023-07-31T05:51:41;3.78;;;2.08;;
43311;SDS011;30041;48.300;16.352;2023-07-31T05:54:07;5.13;;;2.03;;
43311;SDS011;30041;48.300;16.352;2023-07-31T05:56:33;5.63;;;2.13;;
43311;SDS011;30041;48.300;16.352;2023-07-31T05:58:59;3.90;;;1.70;;
43311;SDS011;30041;48.300;16.352;2023-07-31T06:01:25;5.18;;;2.00;;
43311;SDS011;30041;48.300;16.352;2023-07-31T06:03:51;5.50;;;1.90;;
43311;SDS011;30041;48.300;16.352;2023-07-31T06:06:20;3.28;;;1.65;;
43311;SDS011;30041;48.300;16.352;2023-07-31T06:08:46;4.00;;;1.77;;
43311;SDS011;30041;48.300;16.352;2023-07-31T06:11:12;5.70;;;2.10;;
43311;SDS011;30041;48.300;16.352;2023-07-31T06:13:38;5.28;;;1.90;;
43311;SDS011;30041;48.300;16.352;2023-07-31T06:16:04;5.38;;;1.85;;
43311;SDS011;30041;48.300;16.352;2023-07-31T06:18:32;3.80;;;1.70;;
43311;SDS011;30041;48.300;16.352;2023-07-31T06:20:58;3.88;;;1.50;;
43311;SDS011;30041;48.300;16.352;2023-07-31T06:23:24;4.15;;;1.90;;
43311;SDS011;30041;48.300;16.352;2023-07-31T06:25:50;5.55;;;1.77;;
43311;SDS011;30041;48.300;16.352;2023-07-31T06:28:16;4.72;;;1.90;;
43311;SDS011;30041;48.300;16.352;2023-07-31T06:30:42;2.83;;;1.73;;
43311;SDS011;30041;48.300;16.352;2023-07-31T06:33:11;3.90;;;1.52;;
43311;SDS011;30041;48.300;16.352;2023-07-31T06:35:37;3.90;;;1.83;;
43311;SDS011;30041;48.300;16.352;2023-07-31T06:38:03;3.17;;;1.90;;
43311;SDS011;30041;48.300;16.352;2023-07-31T06:40:30;4.45;;;2.10;;
43311;SDS011;30041;48.300;16.352;2023-07-31T06:42:59;3.63;;;1.83;;
43311;SDS011;30041;48.300;16.352;2023-07-31T06:45:25;4.30;;;1.90;;
43311;SDS011;30041;48.300;16.352;2023-07-31T06:47:51;3.47;;;1.88;;
43311;SDS011;30041;48.300;16.352;2023-07-31T06:50:17;3.78;;;1.70;;
43311;SDS011;30041;48.300;16.352;2023-07-31T06:52:42;4.90;;;1.92;;
43311;SDS011;30041;48.300;16.352;2023-07-31T06:57:44;2.70;;;1.77;;
43311;SDS011;30041;48.300;16.352;2023-07-31T07:00:11;4.22;;;1.80;;
43311;SDS011;30041;48.300;16.352;2023-07-31T07:02:38;5.18;;;1.95;;
43311;SDS011;30041;48.300;16.352;2023-07-31T07:05:04;5.85;;;1.90;;
43311;SDS011;30041;48.300;16.352;2023-07-31T07:07:31;3.75;;;1.80;;
43311;SDS011;30041;48.300;16.352;2023-07-31T07:09:57;4.43;;;2.10;;
43311;SDS011;30041;48.300;16.352;2023-07-31T07:12:23;6.05;;;1.90;;
43311;SDS011;30041;48.300;16.352;2023-07-31T07:14:49;4.57;;;1.80;;
43311;SDS011;30041;48.300;16.352;2023-07-31T07:17:15;4.95;;;2.20;;
43311;SDS011;30041;48.300;16.352;2023-07-31T07:19:41;4.68;;;1.80;;
43311;SDS011;30041;48.300;16.352;2023-07-31T07:22:07;4.90;;;1.85;;
43311;SDS011;30041;48.300;16.352;2023-07-31T07:24:33;6.32;;;1.98;;
43311;SDS011;30041;48.300;16.352;2023-07-31T07:26:59;6.57;;;1.80;;
43311;SDS011;30041;48.300;16.352;2023-07-31T07:29:25;4.22;;;1.75;;
43311;SDS011;30041;48.300;16.352;2023-07-31T07:31:51;4.40;;;1.80;;
43311;SDS011;30041;48.300;16.352;2023-07-31T07:34:17;4.03;;;1.85;;
43311;SDS011;30041;48.300;16.352;2023-07-31T07:36:43;3.95;;;1.52;;
43311;SDS011;30041;48.300;16.352;2023-07-31T07:39:09;4.32;;;1.90;;
43311;SDS011;30041;48.300;16.352;2023-07-31T07:41:36;4.00;;;1.60;;
43311;SDS011;30041;48.300;16.352;2023-07-31T07:44:02;4.53;;;1.63;;
43311;SDS011;30041;48.300;16.352;2023-07-31T07:46:28;5.38;;;1.90;;
43311;SDS011;30041;48.300;16.352;2023-07-31T07:48:53;3.97;;;1.73;;
43311;SDS011;30041;48.300;16.352;2023-07-31T07:51:19;3.40;;;1.60;;
43311;SDS011;30041;48.300;16.352;2023-07-31T07:53:45;2.90;;;1.60;;
43311;SDS011;30041;48.300;16.352;2023-07-31T07:56:11;4.90;;;1.92;;
43311;SDS011;30041;48.300;16.352;2023-07-31T07:58:37;3.90;;;1.80;;
43311;SDS011;30041;48.300;16.352;2023-07-31T08:01:05;3.47;;;1.65;;
43311;SDS011;30041;48.300;16.352;2023-07-31T08:03:31;5.55;;;1.80;;
43311;SDS011;30041;48.300;16.352;2023-07-31T08:06:00;4.90;;;1.60;;
43311;SDS011;30041;48.300;16.352;2023-07-31T08:08:27;4.50;;;1.60;;
43311;SDS011;30041;48.300;16.352;2023-07-31T08:10:54;4.30;;;1.52;;
43311;SDS011;30041;48.300;16.352;2023-07-31T08:13:20;5.35;;;1.50;;
43311;SDS011;30041;48.300;16.352;2023-07-31T08:15:46;5.13;;;1.35;;
43311;SDS011;30041;48.300;16.352;2023-07-31T08:18:12;8.32;;;2.10;;
43311;SDS011;30041;48.300;16.352;2023-07-31T08:20:38;3.88;;;1.50;;
43311;SDS011;30041;48.300;16.352;2023-07-31T08:23:07;3.17;;;1.52;;
43311;SDS011;30041;48.300;16.352;2023-07-31T08:25:36;4.25;;;1.60;;
43311;SDS011;30041;48.300;16.352;2023-07-31T08:28:02;3.63;;;1.48;;
43311;SDS011;30041;48.300;16.352;2023-07-31T08:30:29;5.85;;;1.67;;
43311;SDS011;30041;48.300;16.352;2023-07-31T08:32:55;3.33;;;1.55;;
43311;SDS011;30041;48.300;16.352;2023-07-31T08:35:21;4.13;;;1.55;;
43311;SDS011;30041;48.300;16.352;2023-07-31T08:37:48;4.15;;;1.45;;
43311;SDS011;30041;48.300;16.352;2023-07-31T08:40:13;3.50;;;1.50;;
43311;SDS011;30041;48.300;16.352;2023-07-31T08:42:45;4.72;;;1.70;;
43311;SDS011;30041;48.300;16.352;2023-07-31T08:45:13;3.13;;;1.30;;
43311;SDS011;30041;48.300;16.352;2023-07-31T08:47:40;4.90;;;1.42;;
43311;SDS011;30041;48.300;16.352;2023-07-31T08:50:14;5.47;;;1.67;;
43311;SDS011;30041;48.300;16.352;2023-07-31T08:52:41;6.85;;;1.80;;
43311;SDS011;30041;48.300;16.352;2023-07-31T08:55:08;4.30;;;1.75;;
43311;SDS011;30041;48.300;16.352;2023-07-31T08:57:35;3.70;;;1.67;;
43311;SDS011;30041;48.300;16.352;2023-07-31T09:00:02;4.80;;;1.40;;
43311;SDS011;30041;48.300;16.352;2023-07-31T09:02:45;3.28;;;1.50;;
43311;SDS011;30041;48.300;16.352;2023-07-31T09:05:17;3.85;;;1.60;;
43311;SDS011;30041;48.300;16.352;2023-07-31T09:07:45;4.32;;;1.42;;
43311;SDS011;30041;48.300;16.352;2023-07-31T09:10:13;3.55;;;1.48;;
43311;SDS011;30041;48.300;16.352;2023-07-31T09:12:39;4.00;;;1.52;;
43311;SDS011;30041;48.300;16.352;2023-07-31T09:15:05;4.72;;;1.63;;
43311;SDS011;30041;48.300;16.352;2023-07-31T09:17:35;5.32;;;1.60;;
43311;SDS011;30041;48.300;16.352;2023-07-31T09:20:20;3.75;;;1.60;;
43311;SDS011;30041;48.300;16.352;2023-07-31T09:22:48;3.80;;;1.42;;
43311;SDS011;30041;48.300;16.352;2023-07-31T09:25:21;3.92;;;1.38;;
43311;SDS011;30041;48.300;16.352;2023-07-31T09:27:52;5.32;;;1.75;;
43311;SDS011;30041;48.300;16.352;2023-07-31T09:30:26;4.28;;;1.60;;
43311;SDS011;30041;48.300;16.352;2023-07-31T09:32:59;4.00;;;1.40;;
43311;SDS011;30041;48.300;16.352;2023-07-31T09:35:30;4.20;;;1.30;;
43311;SDS011;30041;48.300;16.352;2023-07-31T09:37:58;4.43;;;1.50;;
43311;SDS011;30041;48.300;16.352;2023-07-31T09:40:29;4.75;;;1.63;;
43311;SDS011;30041;48.300;16.352;2023-07-31T09:42:57;5.78;;;1.73;;
43311;SDS011;30041;48.300;16.352;2023-07-31T09:45:27;4.32;;;1.65;;
43311;SDS011;30041;48.300;16.352;2023-07-31T09:47:54;4.47;;;1.42;;
43311;SDS011;30041;48.300;16.352;2023-07-31T09:50:24;4.15;;;1.40;;
43311;SDS011;30041;48.300;16.352;2023-07-31T09:52:51;3.47;;;1.30;;
43311;SDS011;30041;48.300;16.352;2023-07-31T09:55:18;4.10;;;1.52;;
43311;SDS011;30041;48.300;16.352;2023-07-31T09:57:45;3.22;;;1.20;;
43311;SDS011;30041;48.300;16.352;2023-07-31T10:00:15;2.75;;;1.25;;
43311;SDS011;30041;48.300;16.352;2023-07-31T10:02:44;4.75;;;1.42;;
43311;SDS011;30041;48.300;16.352;2023-07-31T10:05:12;3.28;;;1.30;;
43311;SDS011;30041;48.300;16.352;2023-07-31T10:07:39;3.47;;;1.20;;
43311;SDS011;30041;48.300;16.352;2023-07-31T10:10:08;4.45;;;1.42;;
43311;SDS011;30041;48.300;16.352;2023-07-31T10:12:34;4.10;;;1.75;;
43311;SDS011;30041;48.300;16.352;2023-07-31T10:15:03;4.70;;;1.80;;
43311;SDS011;30041;48.300;16.352;2023-07-31T10:17:30;3.70;;;1.40;;
43311;SDS011;30041;48.300;16.352;2023-07-31T10:19:58;4.72;;;1.40;;
43311;SDS011;30041;48.300;16.352;2023-07-31T10:22:24;4.90;;;1.63;;
43311;SDS011;30041;48.300;16.352;2023-07-31T10:24:50;4.35;;;1.42;;
43311;SDS011;30041;48.300;16.352;2023-07-31T10:27:19;3.33;;;1.27;;
43311;SDS011;30041;48.300;16.352;2023-07-31T10:29:48;5.95;;;1.77;;
43311;SDS011;30041;48.300;16.352;2023-07-31T10:32:15;3.25;;;1.33;;
43311;SDS011;30041;48.300;16.352;2023-07-31T10:34:42;2.92;;;1.30;;
43311;SDS011;30041;48.300;16.352;2023-07-31T10:39:54;4.80;;;1.73;;
43311;SDS011;30041;48.300;16.352;2023-07-31T10:42:27;2.92;;;1.20;;
43311;SDS011;30041;48.300;16.352;2023-07-31T10:44:58;4.38;;;1.63;;
43311;SDS011;30041;48.300;16.352;2023-07-31T10:47:25;3.97;;;1.65;;
43311;SDS011;30041;48.300;16.352;2023-07-31T10:49:52;4.40;;;1.90;;
43311;SDS011;30041;48.300;16.352;2023-07-31T10:52:21;3.08;;;1.40;;
43311;SDS011;30041;48.300;16.352;2023-07-31T10:54:47;4.93;;;1.60;;
43311;SDS011;30041;48.300;16.352;2023-07-31T10:57:21;6.70;;;1.73;;
43311;SDS011;30041;48.300;16.352;2023-07-31T11:00:17;5.35;;;1.60;;
43311;SDS011;30041;48.300;16.352;2023-07-31T11:02:56;6.55;;;2.00;;
43311;SDS011;30041;48.300;16.352;2023-07-31T11:05:25;3.75;;;1.48;;
43311;SDS011;30041;48.300;16.352;2023-07-31T11:08:13;4.45;;;1.48;;
43311;SDS011;30041;48.300;16.352;2023-07-31T11:10:41;5.25;;;1.77;;
43311;SDS011;30041;48.300;16.352;2023-07-31T11:13:08;3.90;;;1.50;;
43311;SDS011;30041;48.300;16.352;2023-07-31T11:18:26;6.57;;;1.67;;
43311;SDS011;30041;48.300;16.352;2023-07-31T11:20:52;3.60;;;1.50;;
43311;SDS011;30041;48.300;16.352;2023-07-31T11:23:19;3.60;;;1.70;;
43311;SDS011;30041;48.300;16.352;2023-07-31T11:25:45;4.43;;;1.52;;
43311;SDS011;30041;48.300;16.352;2023-07-31T11:28:12;4.57;;;1.80;;
43311;SDS011;30041;48.300;16.352;2023-07-31T11:30:39;4.40;;;1.63;;
43311;SDS011;30041;48.300;16.352;2023-07-31T11:33:06;3.85;;;1.40;;
43311;SDS011;30041;48.300;16.352;2023-07-31T11:35:40;4.50;;;1.80;;
43311;SDS011;30041;48.300;16.352;2023-07-31T11:38:07;4.53;;;1.70;;
43311;SDS011;30041;48.300;16.352;2023-07-31T11:40:40;4.82;;;1.70;;
43311;SDS011;30041;48.300;16.352;2023-07-31T11:43:07;3.00;;;1.58;;
43311;SDS011;30041;48.300;16.352;2023-07-31T11:45:33;5.63;;;2.35;;
43311;SDS011;30041;48.300;16.352;2023-07-31T11:47:59;6.53;;;2.80;;
43311;SDS011;30041;48.300;16.352;2023-07-31T11:50:26;3.45;;;2.60;;
43311;SDS011;30041;48.300;16.352;2023-07-31T11:52:53;4.55;;;2.80;;
43311;SDS011;30041;48.300;16.352;2023-07-31T11:55:24;4.82;;;2.50;;
43311;SDS011;30041;48.300;16.352;2023-07-31T11:57:51;5.22;;;2.55;;
43311;SDS011;30041;48.300;16.352;2023-07-31T12:00:21;6.90;;;2.63;;
43311;SDS011;30041;48.300;16.352;2023-07-31T12:02:47;3.58;;;2.00;;
43311;SDS011;30041;48.300;16.352;2023-07-31T12:05:16;4.93;;;2.05;;
43311;SDS011;30041;48.300;16.352;2023-07-31T12:07:49;7.32;;;2.20;;
43311;SDS011;30041;48.300;16.352;2023-07-31T12:10:23;9.77;;;2.40;;
43311;SDS011;30041;48.300;16.352;2023-07-31T12:12:59;8.75;;;2.30;;
43311;SDS011;30041;48.300;16.352;2023-07-31T12:15:32;4.55;;;2.10;;
43311;SDS011;30041;48.300;16.352;2023-07-31T12:17:59;5.35;;;2.25;;
43311;SDS011;30041;48.300;16.352;2023-07-31T12:20:25;6.13;;;2.20;;
43311;SDS011;30041;48.300;16.352;2023-07-31T12:22:51;5.18;;;1.85;;
43311;SDS011;30041;48.300;16.352;2023-07-31T12:25:17;7.47;;;2.28;;
43311;SDS011;30041;48.300;16.352;2023-07-31T12:27:46;4.65;;;2.42;;
43311;SDS011;30041;48.300;16.352;2023-07-31T12:33:13;5.55;;;1.85;;
43311;SDS011;30041;48.300;16.352;2023-07-31T12:35:46;5.50;;;2.00;;
43311;SDS011;30041;48.300;16.352;2023-07-31T12:38:12;5.88;;;2.00;;
43311;SDS011;30041;48.300;16.352;2023-07-31T12:40:39;6.40;;;1.75;;
43311;SDS011;30041;48.300;16.352;2023-07-31T12:43:06;8.40;;;2.00;;
43311;SDS011;30041;48.300;16.352;2023-07-31T12:45:33;4.13;;;1.75;;
43311;SDS011;30041;48.300;16.352;2023-07-31T12:48:00;7.50;;;1.90;;
43311;SDS011;30041;48.300;16.352;2023-07-31T12:50:29;3.78;;;1.90;;
43311;SDS011;30041;48.300;16.352;2023-07-31T12:52:56;8.05;;;2.05;;
43311;SDS011;30041;48.300;16.352;2023-07-31T12:55:22;7.15;;;2.22;;
43311;SDS011;30041;48.300;16.352;2023-07-31T12:57:51;8.18;;;2.38;;
43311;SDS011;30041;48.300;16.352;2023-07-31T13:00:17;4.75;;;2.40;;
43311;SDS011;30041;48.300;16.352;2023-07-31T13:02:43;6.07;;;2.42;;
43311;SDS011;30041;48.300;16.352;2023-07-31T13:05:09;6.75;;;2.10;;
43311;SDS011;30041;48.300;16.352;2023-07-31T13:07:34;5.68;;;2.08;;
43311;SDS011;30041;48.300;16.352;2023-07-31T13:10:00;6.13;;;2.08;;
43311;SDS011;30041;48.300;16.352;2023-07-31T13:12:26;2.50;;;1.70;;
43311;SDS011;30041;48.300;16.352;2023-07-31T13:14:52;3.83;;;1.73;;
43311;SDS011;30041;48.300;16.352;2023-07-31T13:17:18;7.60;;;2.00;;
43311;SDS011;30041;48.300;16.352;2023-07-31T13:19:44;3.58;;;2.00;;
43311;SDS011;30041;48.300;16.352;2023-07-31T13:22:10;7.78;;;2.00;;
43311;SDS011;30041;48.300;16.352;2023-07-31T13:24:39;6.43;;;1.77;;
43311;SDS011;30041;48.300;16.352;2023-07-31T13:27:05;5.53;;;1.80;;
43311;SDS011;30041;48.300;16.352;2023-07-31T13:29:31;4.13;;;1.55;;
43311;SDS011;30041;48.300;16.352;2023-07-31T13:31:57;4.25;;;1.80;;
43311;SDS011;30041;48.300;16.352;2023-07-31T13:34:23;4.53;;;1.90;;
43311;SDS011;30041;48.300;16.352;2023-07-31T13:36:49;4.22;;;1.80;;
43311;SDS011;30041;48.300;16.352;2023-07-31T13:39:15;4.60;;;1.67;;
43311;SDS011;30041;48.300;16.352;2023-07-31T13:41:41;5.95;;;1.85;;
43311;SDS011;30041;48.300;16.352;2023-07-31T13:44:07;3.50;;;1.65;;
43311;SDS011;30041;48.300;16.352;2023-07-31T13:46:33;3.78;;;1.80;;
43311;SDS011;30041;48.300;16.352;2023-07-31T13:48:59;3.85;;;1.60;;
43311;SDS011;30041;48.300;16.352;2023-07-31T13:51:25;4.13;;;1.90;;
43311;SDS011;30041;48.300;16.352;2023-07-31T13:53:51;3.25;;;1.60;;
43311;SDS011;30041;48.300;16.352;2023-07-31T13:56:17;3.50;;;1.70;;
43311;SDS011;30041;48.300;16.352;2023-07-31T13:58:43;3.00;;;1.42;;
43311;SDS011;30041;48.300;16.352;2023-07-31T14:01:09;3.53;;;1.67;;
43311;SDS011;30041;48.300;16.352;2023-07-31T14:03:35;2.88;;;1.40;;
43311;SDS011;30041;48.300;16.352;2023-07-31T14:06:01;2.90;;;1.52;;
43311;SDS011;30041;48.300;16.352;2023-07-31T14:08:27;2.00;;;1.40;;
43311;SDS011;30041;48.300;16.352;2023-07-31T14:10:53;2.58;;;1.30;;
43311;SDS011;30041;48.300;16.352;2023-07-31T14:13:19;2.55;;;1.35;;
43311;SDS011;30041;48.300;16.352;2023-07-31T14:15:48;2.63;;;1.38;;
43311;SDS011;30041;48.300;16.352;2023-07-31T14:18:14;2.55;;;1.30;;
43311;SDS011;30041;48.300;16.352;2023-07-31T14:20:39;3.63;;;1.60;;
43311;SDS011;30041;48.300;16.352;2023-07-31T14:23:05;2.72;;;1.40;;
43311;SDS011;30041;48.300;16.352;2023-07-31T14:25:31;2.67;;;1.30;;
43311;SDS011;30041;48.300;16.352;2023-07-31T14:27:57;2.05;;;1.27;;
43311;SDS011;30041;48.300;16.352;2023-07-31T14:30:23;1.98;;;0.95;;
43311;SDS011;30041;48.300;16.352;2023-07-31T14:32:49;3.95;;;1.55;;
43311;SDS011;30041;48.300;16.352;2023-07-31T14:35:18;5.68;;;2.00;;
43311;SDS011;30041;48.300;16.352;2023-07-31T14:37:44;4.60;;;1.67;;
43311;SDS011;30041;48.300;16.352;2023-07-31T14:40:11;4.95;;;1.83;;
43311;SDS011;30041;48.300;16.352;2023-07-31T14:42:38;5.55;;;1.60;;
43311;SDS011;30041;48.300;16.352;2023-07-31T14:45:05;7.40;;;1.85;;
43311;SDS011;30041;48.300;16.352;2023-07-31T14:47:32;7.45;;;1.90;;
43311;SDS011;30041;48.300;16.352;2023-07-31T14:50:00;3.90;;;1.50;;
43311;SDS011;30041;48.300;16.352;2023-07-31T14:52:26;5.78;;;1.70;;
43311;SDS011;30041;48.300;16.352;2023-07-31T14:54:52;5.85;;;1.52;;